sensor_id;sensor_type;location;lat;lon;timestamp;temperature;humidity
19878;DHT22;10101;52.204;9.910;2022-09-03T00:01:09;14.00;1.00
19878;DHT22;10101;52.204;9.910;2022-09-03T00:03:42;13.80;1.00
19878;DHT22;10101;52.204;9.910;2022-09-03T00:06:13;13.80;1.00
19878;DHT22;10101;52.204;9.910;2022-09-03T00:08:45;13.80;1.00
19878;DHT22;10101;52.204;9.910;2022-09-03T00:11:18;13.70;1.00
19878;DHT22;10101;52.204;9.910;2022-09-03T00:13:50;13.70;1.00
19878;DHT22;10101;52.204;9.910;2022-09-03T00:16:21;13.70;1.00
19878;DHT22;10101;52.204;9.910;2022-09-03T00:18:54;13.60;1.00
19878;DHT22;10101;52.204;9.910;2022-09-03T00:21:27;13.60;1.00
19878;DHT22;10101;52.204;9.910;2022-09-03T00:23:58;13.60;1.00
19878;DHT22;10101;52.204;9.910;2022-09-03T00:26:32;13.60;1.00
19878;DHT22;10101;52.204;9.910;2022-09-03T00:29:04;13.60;1.00
19878;DHT22;10101;52.204;9.910;2022-09-03T00:31:34;13.50;1.00
19878;DHT22;10101;52.204;9.910;2022-09-03T00:34:08;13.50;1.00
19878;DHT22;10101;52.204;9.910;2022-09-03T00:36:39;13.40;1.00
19878;DHT22;10101;52.204;9.910;2022-09-03T00:39:09;13.30;1.00
19878;DHT22;10101;52.204;9.910;2022-09-03T00:41:39;13.20;1.00
19878;DHT22;10101;52.204;9.910;2022-09-03T00:47:19;13.00;1.00
19878;DHT22;10101;52.204;9.910;2022-09-03T00:49:59;13.00;21.90
19878;DHT22;10101;52.204;9.910;2022-09-03T00:52:40;13.00;93.10
19878;DHT22;10101;52.204;9.910;2022-09-03T00:55:19;13.00;99.90
19878;DHT22;10101;52.204;9.910;2022-09-03T00:57:55;13.00;99.90
19878;DHT22;10101;52.204;9.910;2022-09-03T01:00:23;13.00;99.90
19878;DHT22;10101;52.204;9.910;2022-09-03T01:03:00;12.90;99.90
19878;DHT22;10101;52.204;9.910;2022-09-03T01:05:41;13.00;99.90
19878;DHT22;10101;52.204;9.910;2022-09-03T01:08:30;12.90;99.90
19878;DHT22;10101;52.204;9.910;2022-09-03T01:11:03;12.90;99.90
19878;DHT22;10101;52.204;9.910;2022-09-03T01:13:37;12.90;99.90
19878;DHT22;10101;52.204;9.910;2022-09-03T01:16:12;12.90;1.00
19878;DHT22;10101;52.204;9.910;2022-09-03T01:18:54;12.90;1.00
19878;DHT22;10101;52.204;9.910;2022-09-03T01:21:47;12.80;1.00
19878;DHT22;10101;52.204;9.910;2022-09-03T01:24:45;12.80;1.00
19878;DHT22;10101;52.204;9.910;2022-09-03T01:27:31;12.80;1.00
19878;DHT22;10101;52.204;9.910;2022-09-03T01:30:07;12.80;1.00
19878;DHT22;10101;52.204;9.910;2022-09-03T01:32:46;12.80;1.00
19878;DHT22;10101;52.204;9.910;2022-09-03T01:35:21;12.90;1.00
19878;DHT22;10101;52.204;9.910;2022-09-03T01:38:04;12.90;1.00
19878;DHT22;10101;52.204;9.910;2022-09-03T01:40:38;12.90;1.00
19878;DHT22;10101;52.204;9.910;2022-09-03T01:43:21;12.90;1.00
19878;DHT22;10101;52.204;9.910;2022-09-03T01:45:52;12.80;1.00
19878;DHT22;10101;52.204;9.910;2022-09-03T01:48:33;12.90;1.00
19878;DHT22;10101;52.204;9.910;2022-09-03T01:51:06;12.90;1.00
19878;DHT22;10101;52.204;9.910;2022-09-03T01:56:49;12.80;1.00
19878;DHT22;10101;52.204;9.910;2022-09-03T01:59:27;12.70;1.00
19878;DHT22;10101;52.204;9.910;2022-09-03T02:02:01;12.70;1.00
19878;DHT22;10101;52.204;9.910;2022-09-03T02:04:30;12.70;16.00
19878;DHT22;10101;52.204;9.910;2022-09-03T02:06:59;12.70;1.00
19878;DHT22;10101;52.204;9.910;2022-09-03T02:09:27;12.60;38.60
19878;DHT22;10101;52.204;9.910;2022-09-03T02:11:55;12.60;99.90
19878;DHT22;10101;52.204;9.910;2022-09-03T02:14:25;12.50;99.90
19878;DHT22;10101;52.204;9.910;2022-09-03T02:16:54;12.40;99.90
19878;DHT22;10101;52.204;9.910;2022-09-03T02:19:26;12.40;99.90
19878;DHT22;10101;52.204;9.910;2022-09-03T02:21:55;12.40;99.90
19878;DHT22;10101;52.204;9.910;2022-09-03T02:24:22;12.40;99.90
19878;DHT22;10101;52.204;9.910;2022-09-03T02:26:49;12.30;99.90
19878;DHT22;10101;52.204;9.910;2022-09-03T02:29:17;12.40;99.90
19878;DHT22;10101;52.204;9.910;2022-09-03T02:31:44;12.40;99.90
19878;DHT22;10101;52.204;9.910;2022-09-03T02:34:11;12.40;1.00
19878;DHT22;10101;52.204;9.910;2022-09-03T02:36:42;12.30;1.00
19878;DHT22;10101;52.204;9.910;2022-09-03T02:39:10;12.30;1.00
19878;DHT22;10101;52.204;9.910;2022-09-03T02:41:37;12.40;1.00
19878;DHT22;10101;52.204;9.910;2022-09-03T02:44:08;12.20;1.00
19878;DHT22;10101;52.204;9.910;2022-09-03T02:46:40;12.20;1.00
19878;DHT22;10101;52.204;9.910;2022-09-03T02:49:09;12.10;1.00
19878;DHT22;10101;52.204;9.910;2022-09-03T02:51:39;12.10;1.00
19878;DHT22;10101;52.204;9.910;2022-09-03T02:54:06;12.10;1.00
19878;DHT22;10101;52.204;9.910;2022-09-03T02:56:33;12.10;1.00
19878;DHT22;10101;52.204;9.910;2022-09-03T02:59:01;12.20;1.00
19878;DHT22;10101;52.204;9.910;2022-09-03T03:01:28;12.20;1.00
19878;DHT22;10101;52.204;9.910;2022-09-03T03:03:54;12.20;1.00
19878;DHT22;10101;52.204;9.910;2022-09-03T03:06:22;12.20;1.00
19878;DHT22;10101;52.204;9.910;2022-09-03T03:08:50;12.20;1.00
19878;DHT22;10101;52.204;9.910;2022-09-03T03:11:20;12.20;1.00
19878;DHT22;10101;52.204;9.910;2022-09-03T03:13:48;12.20;1.00
19878;DHT22;10101;52.204;9.910;2022-09-03T03:16:15;12.20;1.00
19878;DHT22;10101;52.204;9.910;2022-09-03T03:18:43;12.20;1.00
19878;DHT22;10101;52.204;9.910;2022-09-03T03:21:12;12.20;1.00
19878;DHT22;10101;52.204;9.910;2022-09-03T03:23:39;12.30;1.00
19878;DHT22;10101;52.204;9.910;2022-09-03T03:26:09;12.30;1.00
19878;DHT22;10101;52.204;9.910;2022-09-03T03:28:36;12.30;1.00
19878;DHT22;10101;52.204;9.910;2022-09-03T03:31:07;12.40;1.00
19878;DHT22;10101;52.204;9.910;2022-09-03T03:33:34;12.40;1.00
19878;DHT22;10101;52.204;9.910;2022-09-03T03:36:05;12.20;1.00
19878;DHT22;10101;52.204;9.910;2022-09-03T03:38:32;12.20;1.00
19878;DHT22;10101;52.204;9.910;2022-09-03T03:41:07;12.10;34.10
19878;DHT22;10101;52.204;9.910;2022-09-03T03:43:34;12.00;99.90
19878;DHT22;10101;52.204;9.910;2022-09-03T03:46:01;12.00;99.90
19878;DHT22;10101;52.204;9.910;2022-09-03T03:48:28;12.00;99.90
19878;DHT22;10101;52.204;9.910;2022-09-03T03:50:59;12.00;99.90
19878;DHT22;10101;52.204;9.910;2022-09-03T03:53:26;11.90;1.00
19878;DHT22;10101;52.204;9.910;2022-09-03T03:55:54;12.00;1.00
19878;DHT22;10101;52.204;9.910;2022-09-03T03:58:23;12.00;1.00
19878;DHT22;10101;52.204;9.910;2022-09-03T04:00:49;12.10;99.90
19878;DHT22;10101;52.204;9.910;2022-09-03T04:03:17;12.10;99.90
19878;DHT22;10101;52.204;9.910;2022-09-03T04:05:53;12.20;99.90
19878;DHT22;10101;52.204;9.910;2022-09-03T04:08:20;12.20;99.90
19878;DHT22;10101;52.204;9.910;2022-09-03T04:10:47;12.20;99.90
19878;DHT22;10101;52.204;9.910;2022-09-03T04:13:14;12.20;99.90
19878;DHT22;10101;52.204;9.910;2022-09-03T04:15:42;12.10;99.90
19878;DHT22;10101;52.204;9.910;2022-09-03T04:18:09;12.10;99.90
19878;DHT22;10101;52.204;9.910;2022-09-03T04:20:35;12.10;1.00
19878;DHT22;10101;52.204;9.910;2022-09-03T04:23:03;12.10;99.90
19878;DHT22;10101;52.204;9.910;2022-09-03T04:25:30;12.00;1.00
19878;DHT22;10101;52.204;9.910;2022-09-03T04:27:58;12.00;1.00
19878;DHT22;10101;52.204;9.910;2022-09-03T04:30:24;12.10;99.90
19878;DHT22;10101;52.204;9.910;2022-09-03T04:32:53;12.10;99.90
19878;DHT22;10101;52.204;9.910;2022-09-03T04:35:21;12.20;99.90
19878;DHT22;10101;52.204;9.910;2022-09-03T04:37:48;12.20;99.90
19878;DHT22;10101;52.204;9.910;2022-09-03T04:40:16;12.20;99.90
19878;DHT22;10101;52.204;9.910;2022-09-03T04:42:43;12.30;1.00
19878;DHT22;10101;52.204;9.910;2022-09-03T04:45:10;12.30;99.90
19878;DHT22;10101;52.204;9.910;2022-09-03T04:47:43;12.20;99.90
19878;DHT22;10101;52.204;9.910;2022-09-03T04:50:12;12.20;99.90
19878;DHT22;10101;52.204;9.910;2022-09-03T04:52:39;12.20;99.90
19878;DHT22;10101;52.204;9.910;2022-09-03T04:55:07;12.20;99.90
19878;DHT22;10101;52.204;9.910;2022-09-03T04:57:35;12.20;99.90
19878;DHT22;10101;52.204;9.910;2022-09-03T05:00:04;12.20;99.90
19878;DHT22;10101;52.204;9.910;2022-09-03T05:02:32;12.10;99.90
19878;DHT22;10101;52.204;9.910;2022-09-03T05:04:59;12.10;99.90
19878;DHT22;10101;52.204;9.910;2022-09-03T05:07:27;12.20;99.90
19878;DHT22;10101;52.204;9.910;2022-09-03T05:09:53;12.20;99.90
19878;DHT22;10101;52.204;9.910;2022-09-03T05:12:21;12.20;99.90
19878;DHT22;10101;52.204;9.910;2022-09-03T05:14:48;12.20;99.90
19878;DHT22;10101;52.204;9.910;2022-09-03T05:17:15;12.20;99.90
19878;DHT22;10101;52.204;9.910;2022-09-03T05:19:41;12.20;99.90
19878;DHT22;10101;52.204;9.910;2022-09-03T05:22:08;12.20;99.90
19878;DHT22;10101;52.204;9.910;2022-09-03T05:24:36;12.20;99.90
19878;DHT22;10101;52.204;9.910;2022-09-03T05:27:03;12.20;99.90
19878;DHT22;10101;52.204;9.910;2022-09-03T05:29:30;12.20;1.00
19878;DHT22;10101;52.204;9.910;2022-09-03T05:31:57;12.20;1.00
19878;DHT22;10101;52.204;9.910;2022-09-03T05:34:24;12.20;1.00
19878;DHT22;10101;52.204;9.910;2022-09-03T05:36:52;12.20;1.00
19878;DHT22;10101;52.204;9.910;2022-09-03T05:39:20;12.20;1.00
19878;DHT22;10101;52.204;9.910;2022-09-03T05:41:48;12.30;1.00
19878;DHT22;10101;52.204;9.910;2022-09-03T05:44:16;12.30;99.90
19878;DHT22;10101;52.204;9.910;2022-09-03T05:46:45;12.40;99.90
19878;DHT22;10101;52.204;9.910;2022-09-03T05:49:12;12.40;1.00
19878;DHT22;10101;52.204;9.910;2022-09-03T05:51:39;12.50;1.00
19878;DHT22;10101;52.204;9.910;2022-09-03T05:54:07;12.60;1.00
19878;DHT22;10101;52.204;9.910;2022-09-03T05:56:35;12.60;1.00
19878;DHT22;10101;52.204;9.910;2022-09-03T05:59:07;12.70;1.00
19878;DHT22;10101;52.204;9.910;2022-09-03T06:01:36;12.80;1.00
19878;DHT22;10101;52.204;9.910;2022-09-03T06:04:04;13.00;99.90
19878;DHT22;10101;52.204;9.910;2022-09-03T06:06:33;13.10;1.00
19878;DHT22;10101;52.204;9.910;2022-09-03T06:09:02;13.50;99.90
19878;DHT22;10101;52.204;9.910;2022-09-03T06:11:30;13.30;99.90
19878;DHT22;10101;52.204;9.910;2022-09-03T06:13:59;13.20;99.90
19878;DHT22;10101;52.204;9.910;2022-09-03T06:16:28;13.40;99.90
19878;DHT22;10101;52.204;9.910;2022-09-03T06:18:55;13.30;99.90
19878;DHT22;10101;52.204;9.910;2022-09-03T06:21:23;13.40;99.90
19878;DHT22;10101;52.204;9.910;2022-09-03T06:23:50;13.60;99.90
19878;DHT22;10101;52.204;9.910;2022-09-03T06:26:17;13.60;99.90
19878;DHT22;10101;52.204;9.910;2022-09-03T06:28:46;13.70;99.90
19878;DHT22;10101;52.204;9.910;2022-09-03T06:31:14;14.00;57.80
19878;DHT22;10101;52.204;9.910;2022-09-03T06:33:43;14.20;90.20
19878;DHT22;10101;52.204;9.910;2022-09-03T06:36:11;14.30;1.00
19878;DHT22;10101;52.204;9.910;2022-09-03T06:38:39;14.60;1.00
19878;DHT22;10101;52.204;9.910;2022-09-03T06:41:08;14.70;1.00
19878;DHT22;10101;52.204;9.910;2022-09-03T06:43:36;14.70;1.00
19878;DHT22;10101;52.204;9.910;2022-09-03T06:46:05;14.60;1.00
19878;DHT22;10101;52.204;9.910;2022-09-03T06:48:33;15.00;1.00
19878;DHT22;10101;52.204;9.910;2022-09-03T06:51:03;15.40;99.90
19878;DHT22;10101;52.204;9.910;2022-09-03T06:53:32;15.20;99.90
19878;DHT22;10101;52.204;9.910;2022-09-03T06:56:02;15.60;99.90
19878;DHT22;10101;52.204;9.910;2022-09-03T06:58:30;15.70;99.90
19878;DHT22;10101;52.204;9.910;2022-09-03T07:01:01;15.80;99.90
19878;DHT22;10101;52.204;9.910;2022-09-03T07:03:28;15.60;48.60
19878;DHT22;10101;52.204;9.910;2022-09-03T07:06:00;15.80;1.00
19878;DHT22;10101;52.204;9.910;2022-09-03T07:08:28;16.00;1.00
19878;DHT22;10101;52.204;9.910;2022-09-03T07:10:57;16.00;1.00
19878;DHT22;10101;52.204;9.910;2022-09-03T07:13:24;16.40;1.00
19878;DHT22;10101;52.204;9.910;2022-09-03T07:15:58;16.40;1.00
19878;DHT22;10101;52.204;9.910;2022-09-03T07:18:25;16.50;1.00
19878;DHT22;10101;52.204;9.910;2022-09-03T07:20:57;16.60;1.00
19878;DHT22;10101;52.204;9.910;2022-09-03T07:23:25;16.70;1.00
19878;DHT22;10101;52.204;9.910;2022-09-03T07:25:53;16.50;1.00
19878;DHT22;10101;52.204;9.910;2022-09-03T07:28:20;16.40;1.00
19878;DHT22;10101;52.204;9.910;2022-09-03T07:30:49;16.20;1.00
19878;DHT22;10101;52.204;9.910;2022-09-03T07:33:16;16.30;1.00
19878;DHT22;10101;52.204;9.910;2022-09-03T07:35:44;16.50;1.00
19878;DHT22;10101;52.204;9.910;2022-09-03T07:38:15;16.90;1.00
19878;DHT22;10101;52.204;9.910;2022-09-03T07:40:43;17.00;1.00
19878;DHT22;10101;52.204;9.910;2022-09-03T07:43:11;17.10;1.00
19878;DHT22;10101;52.204;9.910;2022-09-03T07:45:38;17.30;1.00
19878;DHT22;10101;52.204;9.910;2022-09-03T07:48:04;17.40;1.00
19878;DHT22;10101;52.204;9.910;2022-09-03T07:50:31;17.70;1.00
19878;DHT22;10101;52.204;9.910;2022-09-03T07:53:03;17.80;99.90
19878;DHT22;10101;52.204;9.910;2022-09-03T07:55:30;17.70;99.90
19878;DHT22;10101;52.204;9.910;2022-09-03T07:57:59;17.90;99.90
19878;DHT22;10101;52.204;9.910;2022-09-03T08:00:26;17.70;99.90
19878;DHT22;10101;52.204;9.910;2022-09-03T08:02:52;17.90;99.90
19878;DHT22;10101;52.204;9.910;2022-09-03T08:05:20;17.90;99.90
19878;DHT22;10101;52.204;9.910;2022-09-03T08:07:47;18.20;99.90
19878;DHT22;10101;52.204;9.910;2022-09-03T08:10:15;18.10;99.90
19878;DHT22;10101;52.204;9.910;2022-09-03T08:12:42;18.00;99.90
19878;DHT22;10101;52.204;9.910;2022-09-03T08:15:10;18.30;99.90
19878;DHT22;10101;52.204;9.910;2022-09-03T08:17:37;18.30;99.90
19878;DHT22;10101;52.204;9.910;2022-09-03T08:20:04;18.50;99.90
19878;DHT22;10101;52.204;9.910;2022-09-03T08:22:32;18.60;99.90
19878;DHT22;10101;52.204;9.910;2022-09-03T08:24:59;18.80;99.90
19878;DHT22;10101;52.204;9.910;2022-09-03T08:27:26;18.70;68.60
19878;DHT22;10101;52.204;9.910;2022-09-03T08:29:53;18.80;50.60
19878;DHT22;10101;52.204;9.910;2022-09-03T08:32:21;18.90;7.80
19878;DHT22;10101;52.204;9.910;2022-09-03T08:34:48;19.10;1.00
19878;DHT22;10101;52.204;9.910;2022-09-03T08:37:15;19.30;1.00
19878;DHT22;10101;52.204;9.910;2022-09-03T08:39:42;19.30;1.00
19878;DHT22;10101;52.204;9.910;2022-09-03T08:42:30;19.60;1.00
19878;DHT22;10101;52.204;9.910;2022-09-03T08:45:00;19.50;1.00
19878;DHT22;10101;52.204;9.910;2022-09-03T08:47:32;19.70;1.00
19878;DHT22;10101;52.204;9.910;2022-09-03T08:50:07;20.10;1.00
19878;DHT22;10101;52.204;9.910;2022-09-03T08:52:39;20.30;1.00
19878;DHT22;10101;52.204;9.910;2022-09-03T08:55:16;20.10;1.00
19878;DHT22;10101;52.204;9.910;2022-09-03T08:57:46;20.40;1.00
19878;DHT22;10101;52.204;9.910;2022-09-03T09:00:14;20.40;1.00
19878;DHT22;10101;52.204;9.910;2022-09-03T09:03:00;20.50;1.00
19878;DHT22;10101;52.204;9.910;2022-09-03T09:05:40;20.80;1.00
19878;DHT22;10101;52.204;9.910;2022-09-03T09:08:15;20.90;1.00
19878;DHT22;10101;52.204;9.910;2022-09-03T09:10:46;21.10;1.00
19878;DHT22;10101;52.204;9.910;2022-09-03T09:13:21;20.90;1.00
19878;DHT22;10101;52.204;9.910;2022-09-03T09:15:53;20.80;1.00
19878;DHT22;10101;52.204;9.910;2022-09-03T09:18:37;20.70;99.90
19878;DHT22;10101;52.204;9.910;2022-09-03T09:21:08;21.10;99.90
19878;DHT22;10101;52.204;9.910;2022-09-03T09:23:41;21.10;99.90
19878;DHT22;10101;52.204;9.910;2022-09-03T09:26:14;21.20;99.90
19878;DHT22;10101;52.204;9.910;2022-09-03T09:28:43;21.40;99.90
19878;DHT22;10101;52.204;9.910;2022-09-03T09:31:13;21.30;99.90
19878;DHT22;10101;52.204;9.910;2022-09-03T09:33:44;21.40;99.90
19878;DHT22;10101;52.204;9.910;2022-09-03T09:36:12;21.60;99.90
19878;DHT22;10101;52.204;9.910;2022-09-03T09:38:42;21.50;99.90
19878;DHT22;10101;52.204;9.910;2022-09-03T09:41:11;21.50;99.90
19878;DHT22;10101;52.204;9.910;2022-09-03T09:43:38;21.70;99.90
19878;DHT22;10101;52.204;9.910;2022-09-03T09:46:08;21.90;98.50
19878;DHT22;10101;52.204;9.910;2022-09-03T09:48:38;21.80;56.50
19878;DHT22;10101;52.204;9.910;2022-09-03T09:51:11;21.60;1.00
19878;DHT22;10101;52.204;9.910;2022-09-03T09:53:38;21.60;1.00
19878;DHT22;10101;52.204;9.910;2022-09-03T09:56:05;22.00;1.00
19878;DHT22;10101;52.204;9.910;2022-09-03T09:58:33;21.80;1.00
19878;DHT22;10101;52.204;9.910;2022-09-03T10:01:03;21.80;1.00
19878;DHT22;10101;52.204;9.910;2022-09-03T10:03:40;22.20;1.00
19878;DHT22;10101;52.204;9.910;2022-09-03T10:06:15;22.10;1.00
19878;DHT22;10101;52.204;9.910;2022-09-03T10:09:07;22.40;1.00
19878;DHT22;10101;52.204;9.910;2022-09-03T10:11:35;22.40;1.00
19878;DHT22;10101;52.204;9.910;2022-09-03T10:14:07;22.50;1.00
19878;DHT22;10101;52.204;9.910;2022-09-03T10:16:39;22.60;1.00
19878;DHT22;10101;52.204;9.910;2022-09-03T10:19:10;22.70;1.00
19878;DHT22;10101;52.204;9.910;2022-09-03T10:21:48;22.40;1.00
19878;DHT22;10101;52.204;9.910;2022-09-03T10:24:29;22.40;1.00
19878;DHT22;10101;52.204;9.910;2022-09-03T10:26:57;22.60;1.00
19878;DHT22;10101;52.204;9.910;2022-09-03T10:29:24;22.50;1.00
19878;DHT22;10101;52.204;9.910;2022-09-03T10:32:10;22.50;1.00
19878;DHT22;10101;52.204;9.910;2022-09-03T10:34:48;22.60;1.00
19878;DHT22;10101;52.204;9.910;2022-09-03T10:37:31;22.40;1.00
19878;DHT22;10101;52.204;9.910;2022-09-03T10:40:17;22.60;1.00
19878;DHT22;10101;52.204;9.910;2022-09-03T10:43:03;22.70;1.00
19878;DHT22;10101;52.204;9.910;2022-09-03T10:45:38;23.00;1.00
19878;DHT22;10101;52.204;9.910;2022-09-03T10:48:23;23.30;1.00
19878;DHT22;10101;52.204;9.910;2022-09-03T10:50:56;23.40;1.00
19878;DHT22;10101;52.204;9.910;2022-09-03T10:53:47;23.40;1.00
19878;DHT22;10101;52.204;9.910;2022-09-03T10:56:20;23.40;1.00
19878;DHT22;10101;52.204;9.910;2022-09-03T10:58:55;23.40;1.00
19878;DHT22;10101;52.204;9.910;2022-09-03T11:01:31;23.40;99.90
19878;DHT22;10101;52.204;9.910;2022-09-03T11:04:14;23.50;99.90
19878;DHT22;10101;52.204;9.910;2022-09-03T11:06:50;23.70;99.90
19878;DHT22;10101;52.204;9.910;2022-09-03T11:09:21;23.80;99.90
19878;DHT22;10101;52.204;9.910;2022-09-03T11:11:53;23.90;99.90
19878;DHT22;10101;52.204;9.910;2022-09-03T11:14:29;24.00;99.90
19878;DHT22;10101;52.204;9.910;2022-09-03T11:17:03;23.80;99.90
19878;DHT22;10101;52.204;9.910;2022-09-03T11:19:35;23.80;99.90
19878;DHT22;10101;52.204;9.910;2022-09-03T11:22:05;23.80;99.90
19878;DHT22;10101;52.204;9.910;2022-09-03T11:24:37;23.90;99.90
19878;DHT22;10101;52.204;9.910;2022-09-03T11:27:17;23.80;99.90
19878;DHT22;10101;52.204;9.910;2022-09-03T11:29:50;23.80;99.90
19878;DHT22;10101;52.204;9.910;2022-09-03T11:32:23;23.80;99.90
19878;DHT22;10101;52.204;9.910;2022-09-03T11:34:52;23.80;99.90
19878;DHT22;10101;52.204;9.910;2022-09-03T11:37:22;24.30;99.90
19878;DHT22;10101;52.204;9.910;2022-09-03T11:40:02;24.10;99.90
19878;DHT22;10101;52.204;9.910;2022-09-03T11:42:33;24.10;99.90
19878;DHT22;10101;52.204;9.910;2022-09-03T11:45:22;24.10;99.90
19878;DHT22;10101;52.204;9.910;2022-09-03T11:47:50;24.10;99.90
19878;DHT22;10101;52.204;9.910;2022-09-03T11:50:21;24.10;99.90
19878;DHT22;10101;52.204;9.910;2022-09-03T11:52:49;24.10;99.90
19878;DHT22;10101;52.204;9.910;2022-09-03T11:55:29;24.10;99.90
19878;DHT22;10101;52.204;9.910;2022-09-03T11:58:08;24.10;99.90
19878;DHT22;10101;52.204;9.910;2022-09-03T12:00:42;23.90;99.90
19878;DHT22;10101;52.204;9.910;2022-09-03T12:03:13;23.90;99.90
19878;DHT22;10101;52.204;9.910;2022-09-03T12:05:50;24.00;99.90
19878;DHT22;10101;52.204;9.910;2022-09-03T12:08:49;24.20;99.90
19878;DHT22;10101;52.204;9.910;2022-09-03T12:11:40;24.30;99.90
19878;DHT22;10101;52.204;9.910;2022-09-03T12:14:18;24.50;99.90
19878;DHT22;10101;52.204;9.910;2022-09-03T12:17:04;24.40;99.90
19878;DHT22;10101;52.204;9.910;2022-09-03T12:19:38;24.30;99.90
19878;DHT22;10101;52.204;9.910;2022-09-03T12:22:06;24.40;99.90
19878;DHT22;10101;52.204;9.910;2022-09-03T12:24:39;24.30;99.90
19878;DHT22;10101;52.204;9.910;2022-09-03T12:27:11;24.20;99.90
19878;DHT22;10101;52.204;9.910;2022-09-03T12:29:38;24.20;99.90
19878;DHT22;10101;52.204;9.910;2022-09-03T12:32:15;24.00;99.90
19878;DHT22;10101;52.204;9.910;2022-09-03T12:34:43;24.20;99.90
19878;DHT22;10101;52.204;9.910;2022-09-03T12:37:18;24.20;99.90
19878;DHT22;10101;52.204;9.910;2022-09-03T12:39:49;24.30;99.90
19878;DHT22;10101;52.204;9.910;2022-09-03T12:42:22;24.30;99.90
19878;DHT22;10101;52.204;9.910;2022-09-03T12:44:50;24.20;99.90
19878;DHT22;10101;52.204;9.910;2022-09-03T12:47:18;24.10;99.90
19878;DHT22;10101;52.204;9.910;2022-09-03T12:49:47;24.30;99.90
19878;DHT22;10101;52.204;9.910;2022-09-03T12:52:18;24.10;99.90
19878;DHT22;10101;52.204;9.910;2022-09-03T12:54:49;24.20;99.90
19878;DHT22;10101;52.204;9.910;2022-09-03T12:57:22;24.20;99.90
19878;DHT22;10101;52.204;9.910;2022-09-03T12:59:53;24.30;99.90
19878;DHT22;10101;52.204;9.910;2022-09-03T13:02:25;24.40;99.90
19878;DHT22;10101;52.204;9.910;2022-09-03T13:04:54;24.40;99.90
19878;DHT22;10101;52.204;9.910;2022-09-03T13:07:25;24.40;99.90
19878;DHT22;10101;52.204;9.910;2022-09-03T13:10:00;24.50;99.90
19878;DHT22;10101;52.204;9.910;2022-09-03T13:12:33;24.70;99.90
19878;DHT22;10101;52.204;9.910;2022-09-03T13:15:09;24.70;99.90
19878;DHT22;10101;52.204;9.910;2022-09-03T13:18:05;24.70;99.90
19878;DHT22;10101;52.204;9.910;2022-09-03T13:20:37;24.80;99.90
19878;DHT22;10101;52.204;9.910;2022-09-03T13:26:08;24.70;99.90
19878;DHT22;10101;52.204;9.910;2022-09-03T13:28:52;25.00;99.90
19878;DHT22;10101;52.204;9.910;2022-09-03T13:31:28;24.90;99.90
19878;DHT22;10101;52.204;9.910;2022-09-03T13:34:00;25.00;99.90
19878;DHT22;10101;52.204;9.910;2022-09-03T13:36:33;24.90;99.90
19878;DHT22;10101;52.204;9.910;2022-09-03T13:39:06;24.90;99.90
19878;DHT22;10101;52.204;9.910;2022-09-03T13:41:45;25.00;99.90
19878;DHT22;10101;52.204;9.910;2022-09-03T13:44:19;24.90;99.90
19878;DHT22;10101;52.204;9.910;2022-09-03T13:46:52;25.20;99.90
19878;DHT22;10101;52.204;9.910;2022-09-03T13:49:33;25.10;99.90
19878;DHT22;10101;52.204;9.910;2022-09-03T13:52:25;25.10;99.90
19878;DHT22;10101;52.204;9.910;2022-09-03T13:54:59;25.10;99.90
19878;DHT22;10101;52.204;9.910;2022-09-03T13:57:33;25.10;99.90
19878;DHT22;10101;52.204;9.910;2022-09-03T14:00:07;25.20;99.90
19878;DHT22;10101;52.204;9.910;2022-09-03T14:02:45;25.60;99.90
19878;DHT22;10101;52.204;9.910;2022-09-03T14:05:22;26.60;99.90
19878;DHT22;10101;52.204;9.910;2022-09-03T14:08:03;27.20;99.90
19878;DHT22;10101;52.204;9.910;2022-09-03T14:10:48;28.30;99.90
19878;DHT22;10101;52.204;9.910;2022-09-03T14:13:23;28.30;99.90
19878;DHT22;10101;52.204;9.910;2022-09-03T14:16:02;28.60;99.90
19878;DHT22;10101;52.204;9.910;2022-09-03T14:18:38;28.90;99.90
19878;DHT22;10101;52.204;9.910;2022-09-03T14:21:10;29.70;99.90
19878;DHT22;10101;52.204;9.910;2022-09-03T14:23:44;30.30;99.90
19878;DHT22;10101;52.204;9.910;2022-09-03T14:26:16;30.20;99.90
19878;DHT22;10101;52.204;9.910;2022-09-03T14:28:47;31.00;99.90
19878;DHT22;10101;52.204;9.910;2022-09-03T14:31:25;31.50;99.90
19878;DHT22;10101;52.204;9.910;2022-09-03T14:34:01;31.70;99.90
19878;DHT22;10101;52.204;9.910;2022-09-03T14:36:34;31.40;99.90
19878;DHT22;10101;52.204;9.910;2022-09-03T14:39:29;32.30;99.90
19878;DHT22;10101;52.204;9.910;2022-09-03T14:45:14;32.70;99.90
19878;DHT22;10101;52.204;9.910;2022-09-03T14:47:57;32.60;99.90
19878;DHT22;10101;52.204;9.910;2022-09-03T14:50:42;32.70;99.90
19878;DHT22;10101;52.204;9.910;2022-09-03T14:53:47;33.10;99.90
19878;DHT22;10101;52.204;9.910;2022-09-03T14:56:28;33.40;99.90
19878;DHT22;10101;52.204;9.910;2022-09-03T14:59:16;33.80;99.90
19878;DHT22;10101;52.204;9.910;2022-09-03T15:01:48;33.40;99.90
19878;DHT22;10101;52.204;9.910;2022-09-03T15:04:50;33.30;99.90
19878;DHT22;10101;52.204;9.910;2022-09-03T15:07:31;33.80;99.90
19878;DHT22;10101;52.204;9.910;2022-09-03T15:10:06;33.40;99.90
19878;DHT22;10101;52.204;9.910;2022-09-03T15:12:40;34.00;99.90
19878;DHT22;10101;52.204;9.910;2022-09-03T15:15:12;33.80;99.90
19878;DHT22;10101;52.204;9.910;2022-09-03T15:17:59;34.00;99.90
19878;DHT22;10101;52.204;9.910;2022-09-03T15:20:39;32.70;99.90
19878;DHT22;10101;52.204;9.910;2022-09-03T15:23:15;31.30;99.90
19878;DHT22;10101;52.204;9.910;2022-09-03T15:25:57;30.40;99.90
19878;DHT22;10101;52.204;9.910;2022-09-03T15:28:40;29.90;99.90
19878;DHT22;10101;52.204;9.910;2022-09-03T15:31:15;30.20;99.90
19878;DHT22;10101;52.204;9.910;2022-09-03T15:33:51;29.30;99.90
19878;DHT22;10101;52.204;9.910;2022-09-03T15:36:24;29.00;99.90
19878;DHT22;10101;52.204;9.910;2022-09-03T15:38:56;28.30;99.90
19878;DHT22;10101;52.204;9.910;2022-09-03T15:41:39;28.40;99.90
19878;DHT22;10101;52.204;9.910;2022-09-03T15:44:10;28.20;99.90
19878;DHT22;10101;52.204;9.910;2022-09-03T15:46:55;28.50;99.90
19878;DHT22;10101;52.204;9.910;2022-09-03T15:49:30;29.00;99.90
19878;DHT22;10101;52.204;9.910;2022-09-03T15:52:20;29.50;99.90
19878;DHT22;10101;52.204;9.910;2022-09-03T15:54:56;28.90;99.90
19878;DHT22;10101;52.204;9.910;2022-09-03T15:57:31;27.80;99.90
19878;DHT22;10101;52.204;9.910;2022-09-03T16:00:01;27.60;99.90
19878;DHT22;10101;52.204;9.910;2022-09-03T16:02:32;27.30;99.90
19878;DHT22;10101;52.204;9.910;2022-09-03T16:05:06;27.30;99.90
19878;DHT22;10101;52.204;9.910;2022-09-03T16:10:35;26.60;99.90
19878;DHT22;10101;52.204;9.910;2022-09-03T16:13:13;26.70;99.90
19878;DHT22;10101;52.204;9.910;2022-09-03T16:15:50;26.00;99.90
19878;DHT22;10101;52.204;9.910;2022-09-03T16:18:26;26.00;99.90
19878;DHT22;10101;52.204;9.910;2022-09-03T16:20:58;25.80;99.90
19878;DHT22;10101;52.204;9.910;2022-09-03T16:23:31;25.50;99.90
19878;DHT22;10101;52.204;9.910;2022-09-03T16:26:05;25.20;99.90